Victor, New York
Current Conditions -  °F | °C
As of 5:54 PM on Thursday 27 Nov 2014 (Local Time) from KROC Reporting Station
Overcast Overcast  
Wind Chill: 26°   Ceiling: 1900
Heat Index: 32°   Visibility: 10mi
Dew Point: 26°   Wind: 7mph
Humidity: 79%   Direction: 330°NNW
Pressure: 30.07"   Gusts: NA
Location:  42.98°N, 77.41°W
Report Text: KROC 272254Z 33006KT 10SM BKN019 BKN023 OVC029 00/M03 A3007 RMK AO2 SLP191 T00001033
Loading
Personal Weather Stations






























Interactive Weather Map New forecast layout! Learn more

10-Day Weather Forecast

Advertisements
Track Severe Weather on mobile